sensor_id;sensor_type;location;lat;lon;timestamp;pressure;altitude;pressure_sealevel;temperature;humidity
19286;BME280;9776;50.798;6.430;2023-10-13T00:00:37;99967.09;;;19.26;73.83
19286;BME280;9776;50.798;6.430;2023-10-13T00:03:06;99965.25;;;19.27;73.92
19286;BME280;9776;50.798;6.430;2023-10-13T00:05:40;99954.31;;;19.28;74.01
19286;BME280;9776;50.798;6.430;2023-10-13T00:08:08;99954.31;;;19.28;73.80
19286;BME280;9776;50.798;6.430;2023-10-13T00:10:36;99965.84;;;19.29;74.03
19286;BME280;9776;50.798;6.430;2023-10-13T00:13:03;99949.59;;;19.31;73.82
19286;BME280;9776;50.798;6.430;2023-10-13T00:15:40;99949.13;;;19.34;73.89
19286;BME280;9776;50.798;6.430;2023-10-13T00:18:11;99942.34;;;19.31;73.99
19286;BME280;9776;50.798;6.430;2023-10-13T00:20:40;99932.47;;;19.32;73.81
19286;BME280;9776;50.798;6.430;2023-10-13T00:23:13;99925.28;;;19.32;73.85
19286;BME280;9776;50.798;6.430;2023-10-13T00:25:40;99918.06;;;19.33;73.94
19286;BME280;9776;50.798;6.430;2023-10-13T00:28:15;99927.94;;;19.32;74.00
19286;BME280;9776;50.798;6.430;2023-10-13T00:30:50;99928.53;;;19.34;73.73
19286;BME280;9776;50.798;6.430;2023-10-13T00:33:18;99914.97;;;19.36;73.93
19286;BME280;9776;50.798;6.430;2023-10-13T00:35:45;99928.94;;;19.38;73.86
19286;BME280;9776;50.798;6.430;2023-10-13T00:38:12;99920.91;;;19.38;73.78
19286;BME280;9776;50.798;6.430;2023-10-13T00:40:40;99915.38;;;19.39;73.57
19286;BME280;9776;50.798;6.430;2023-10-13T00:43:17;99915.97;;;19.41;73.69
19286;BME280;9776;50.798;6.430;2023-10-13T00:46:02;99915.75;;;19.43;73.70
19286;BME280;9776;50.798;6.430;2023-10-13T00:48:40;99902.38;;;19.43;73.93
19286;BME280;9776;50.798;6.430;2023-10-13T00:51:17;99904.25;;;19.42;73.71
19286;BME280;9776;50.798;6.430;2023-10-13T00:53:57;99903.19;;;19.43;73.96
19286;BME280;9776;50.798;6.430;2023-10-13T00:56:25;99906.69;;;19.44;73.79
19286;BME280;9776;50.798;6.430;2023-10-13T00:58:53;99901.94;;;19.46;73.86
19286;BME280;9776;50.798;6.430;2023-10-13T01:01:21;99897.41;;;19.46;74.03
19286;BME280;9776;50.798;6.430;2023-10-13T01:03:49;99890.41;;;19.45;74.14
19286;BME280;9776;50.798;6.430;2023-10-13T01:06:16;99897.81;;;19.50;74.11
19286;BME280;9776;50.798;6.430;2023-10-13T01:08:45;99887.91;;;19.50;74.13
19286;BME280;9776;50.798;6.430;2023-10-13T01:11:16;99896.16;;;19.49;74.18
19286;BME280;9776;50.798;6.430;2023-10-13T01:13:44;99887.91;;;19.50;74.22
19286;BME280;9776;50.798;6.430;2023-10-13T01:16:09;99884.19;;;19.51;74.15
19286;BME280;9776;50.798;6.430;2023-10-13T01:18:37;99875.94;;;19.53;74.23
19286;BME280;9776;50.798;6.430;2023-10-13T01:21:14;99871.03;;;19.50;74.49
19286;BME280;9776;50.798;6.430;2023-10-13T01:23:46;99876.97;;;19.52;74.46
19286;BME280;9776;50.798;6.430;2023-10-13T01:26:14;99876.97;;;19.52;74.68
19286;BME280;9776;50.798;6.430;2023-10-13T01:28:50;99869.78;;;19.52;74.54
19286;BME280;9776;50.798;6.430;2023-10-13T01:31:17;99870.00;;;19.51;74.84
19286;BME280;9776;50.798;6.430;2023-10-13T01:33:54;99870.00;;;19.51;74.88
19286;BME280;9776;50.798;6.430;2023-10-13T01:36:24;99859.06;;;19.52;74.92
19286;BME280;9776;50.798;6.430;2023-10-13T01:38:51;99851.03;;;19.52;75.14
19286;BME280;9776;50.798;6.430;2023-10-13T01:41:19;99859.88;;;19.53;75.11
19286;BME280;9776;50.798;6.430;2023-10-13T01:43:45;99859.06;;;19.52;75.00
19286;BME280;9776;50.798;6.430;2023-10-13T01:46:14;99857.41;;;19.51;75.38
19286;BME280;9776;50.798;6.430;2023-10-13T01:48:40;99855.78;;;19.50;75.32
19286;BME280;9776;50.798;6.430;2023-10-13T01:51:09;99845.91;;;19.51;75.41
19286;BME280;9776;50.798;6.430;2023-10-13T01:53:36;99854.16;;;19.49;75.61
19286;BME280;9776;50.798;6.430;2023-10-13T01:56:05;99841.78;;;19.48;75.59
19286;BME280;9776;50.798;6.430;2023-10-13T01:58:36;99836.88;;;19.45;75.86
19286;BME280;9776;50.798;6.430;2023-10-13T02:01:03;99843.06;;;19.46;75.76
19286;BME280;9776;50.798;6.430;2023-10-13T02:03:30;99840.38;;;19.46;75.91
19286;BME280;9776;50.798;6.430;2023-10-13T02:05:56;99828.84;;;19.45;76.02
19286;BME280;9776;50.798;6.430;2023-10-13T02:08:24;99827.63;;;19.48;75.92
19286;BME280;9776;50.798;6.430;2023-10-13T02:10:51;99824.94;;;19.48;76.02
19286;BME280;9776;50.798;6.430;2023-10-13T02:13:19;99823.69;;;19.50;75.97
19286;BME280;9776;50.798;6.430;2023-10-13T02:15:48;99818.53;;;19.49;76.10
19286;BME280;9776;50.798;6.430;2023-10-13T02:18:15;99819.16;;;19.51;76.10
19286;BME280;9776;50.798;6.430;2023-10-13T02:20:46;99826.94;;;19.52;76.19
19286;BME280;9776;50.798;6.430;2023-10-13T02:23:19;99818.91;;;19.52;76.16
19286;BME280;9776;50.798;6.430;2023-10-13T02:25:46;99809.84;;;19.53;76.27
19286;BME280;9776;50.798;6.430;2023-10-13T02:28:13;99815.78;;;19.55;76.32
19286;BME280;9776;50.798;6.430;2023-10-13T02:30:42;99816.19;;;19.59;75.97
19286;BME280;9776;50.798;6.430;2023-10-13T02:33:14;99813.50;;;19.59;76.01
19286;BME280;9776;50.798;6.430;2023-10-13T02:35:40;99804.22;;;19.61;76.42
19286;BME280;9776;50.798;6.430;2023-10-13T02:38:16;99799.69;;;19.62;76.22
19286;BME280;9776;50.798;6.430;2023-10-13T02:40:51;99793.28;;;19.63;76.26
19286;BME280;9776;50.798;6.430;2023-10-13T02:43:19;99782.34;;;19.64;76.27
19286;BME280;9776;50.798;6.430;2023-10-13T02:45:53;99783.19;;;19.65;75.98
19286;BME280;9776;50.798;6.430;2023-10-13T02:48:24;99770.81;;;19.64;76.08
19286;BME280;9776;50.798;6.430;2023-10-13T02:50:56;99770.59;;;19.65;76.01
19286;BME280;9776;50.798;6.430;2023-10-13T02:53:22;99767.91;;;19.65;76.25
19286;BME280;9776;50.798;6.430;2023-10-13T02:55:50;99756.41;;;19.65;76.22
19286;BME280;9776;50.798;6.430;2023-10-13T02:58:17;99755.34;;;19.66;75.95
19286;BME280;9776;50.798;6.430;2023-10-13T03:00:43;99763.63;;;19.64;76.23
19286;BME280;9776;50.798;6.430;2023-10-13T03:03:12;99750.81;;;19.66;75.93
19286;BME280;9776;50.798;6.430;2023-10-13T03:05:40;99739.28;;;19.66;76.11
19286;BME280;9776;50.798;6.430;2023-10-13T03:08:08;99741.97;;;19.66;75.97
19286;BME280;9776;50.798;6.430;2023-10-13T03:10:36;99748.97;;;19.67;75.68
19286;BME280;9776;50.798;6.430;2023-10-13T03:13:11;99738.25;;;19.67;75.76
19286;BME280;9776;50.798;6.430;2023-10-13T03:15:36;99737.81;;;19.70;75.86
19286;BME280;9776;50.798;6.430;2023-10-13T03:18:03;99736.78;;;19.71;75.51
19286;BME280;9776;50.798;6.430;2023-10-13T03:20:30;99728.75;;;19.71;75.63
19286;BME280;9776;50.798;6.430;2023-10-13T03:22:58;99730.94;;;19.74;75.76
19286;BME280;9776;50.798;6.430;2023-10-13T03:25:24;99720.47;;;19.72;75.75
19286;BME280;9776;50.798;6.430;2023-10-13T03:27:55;99718.03;;;19.71;75.73
19286;BME280;9776;50.798;6.430;2023-10-13T03:30:30;99696.38;;;19.72;75.82
19286;BME280;9776;50.798;6.430;2023-10-13T03:33:04;99705.22;;;19.73;75.59
19286;BME280;9776;50.798;6.430;2023-10-13T03:35:35;99693.47;;;19.74;75.77
19286;BME280;9776;50.798;6.430;2023-10-13T03:38:06;99688.09;;;19.74;75.62
19286;BME280;9776;50.798;6.430;2023-10-13T03:40:42;99698.59;;;19.75;75.53
19286;BME280;9776;50.798;6.430;2023-10-13T03:43:14;99682.53;;;19.75;75.50
19286;BME280;9776;50.798;6.430;2023-10-13T03:45:44;99682.28;;;19.77;75.66
19286;BME280;9776;50.798;6.430;2023-10-13T03:48:14;99685.22;;;19.75;75.40
19286;BME280;9776;50.798;6.430;2023-10-13T03:50:57;99680.69;;;19.76;75.55
19286;BME280;9776;50.798;6.430;2023-10-13T03:53:32;99684.63;;;19.73;75.43
19286;BME280;9776;50.798;6.430;2023-10-13T03:56:02;99684.19;;;19.76;75.44
19286;BME280;9776;50.798;6.430;2023-10-13T03:58:38;99683.38;;;19.76;75.34
19286;BME280;9776;50.798;6.430;2023-10-13T04:01:11;99678.00;;;19.76;75.35
19286;BME280;9776;50.798;6.430;2023-10-13T04:03:41;99676.94;;;19.77;75.37
19286;BME280;9776;50.798;6.430;2023-10-13T04:06:23;99669.53;;;19.79;75.38
19286;BME280;9776;50.798;6.430;2023-10-13T04:09:13;99659.41;;;19.81;75.14
19286;BME280;9776;50.798;6.430;2023-10-13T04:11:58;99649.72;;;19.80;74.98
19286;BME280;9776;50.798;6.430;2023-10-13T04:14:43;99654.03;;;19.81;74.85
19286;BME280;9776;50.798;6.430;2023-10-13T04:17:35;99651.00;;;19.77;75.03
19286;BME280;9776;50.798;6.430;2023-10-13T04:20:10;99636.31;;;19.80;75.05
19286;BME280;9776;50.798;6.430;2023-10-13T04:22:53;99641.69;;;19.80;74.96
19286;BME280;9776;50.798;6.430;2023-10-13T04:25:37;99640.06;;;19.79;75.03
19286;BME280;9776;50.798;6.430;2023-10-13T04:28:30;99637.00;;;19.75;75.18
19286;BME280;9776;50.798;6.430;2023-10-13T04:31:00;99634.09;;;19.77;75.06
19286;BME280;9776;50.798;6.430;2023-10-13T04:33:38;99627.13;;;19.76;75.14
19286;BME280;9776;50.798;6.430;2023-10-13T04:36:17;99622.81;;;19.75;75.20
19286;BME280;9776;50.798;6.430;2023-10-13T04:39:03;99616.41;;;19.76;75.21
19286;BME280;9776;50.798;6.430;2023-10-13T04:41:35;99621.78;;;19.76;75.40
19286;BME280;9776;50.798;6.430;2023-10-13T04:44:05;99614.56;;;19.76;75.33
19286;BME280;9776;50.798;6.430;2023-10-13T04:46:46;99618.28;;;19.75;75.40
19286;BME280;9776;50.798;6.430;2023-10-13T04:49:34;99619.69;;;19.78;75.29
19286;BME280;9776;50.798;6.430;2023-10-13T04:52:15;99610.63;;;19.79;75.47
19286;BME280;9776;50.798;6.430;2023-10-13T04:55:06;99598.84;;;19.80;75.11
19286;BME280;9776;50.798;6.430;2023-10-13T04:57:52;99606.06;;;19.79;75.34
19286;BME280;9776;50.798;6.430;2023-10-13T05:00:35;99593.47;;;19.80;75.37
19286;BME280;9776;50.798;6.430;2023-10-13T05:03:19;99590.97;;;19.85;75.23
19286;BME280;9776;50.798;6.430;2023-10-13T05:06:00;99581.66;;;19.88;75.10
19286;BME280;9776;50.798;6.430;2023-10-13T05:08:52;99590.84;;;19.92;74.99
19286;BME280;9776;50.798;6.430;2023-10-13T05:11:37;99594.94;;;19.94;74.94
19286;BME280;9776;50.798;6.430;2023-10-13T05:14:21;99605.44;;;19.96;74.71
19286;BME280;9776;50.798;6.430;2023-10-13T05:17:05;99610.34;;;19.99;74.76
19286;BME280;9776;50.798;6.430;2023-10-13T05:19:49;99608.25;;;20.01;74.55
19286;BME280;9776;50.798;6.430;2023-10-13T05:22:33;99611.28;;;20.04;74.49
19286;BME280;9776;50.798;6.430;2023-10-13T05:25:17;99605.94;;;20.04;74.63
19286;BME280;9776;50.798;6.430;2023-10-13T05:28:03;99608.16;;;20.07;74.69
19286;BME280;9776;50.798;6.430;2023-10-13T05:30:47;99594.38;;;20.04;74.89
19286;BME280;9776;50.798;6.430;2023-10-13T05:33:31;99605.09;;;20.04;74.96
19286;BME280;9776;50.798;6.430;2023-10-13T05:36:15;99588.22;;;20.03;74.94
19286;BME280;9776;50.798;6.430;2023-10-13T05:38:59;99600.00;;;20.02;75.06
19286;BME280;9776;50.798;6.430;2023-10-13T05:41:43;99590.69;;;20.05;75.13
19286;BME280;9776;50.798;6.430;2023-10-13T05:44:29;99593.34;;;20.05;75.20
19286;BME280;9776;50.798;6.430;2023-10-13T05:47:12;99588.22;;;20.03;75.12
19286;BME280;9776;50.798;6.430;2023-10-13T05:50:08;99598.13;;;20.03;74.98
19286;BME280;9776;50.798;6.430;2023-10-13T05:52:54;99583.47;;;20.05;75.08
19286;BME280;9776;50.798;6.430;2023-10-13T05:55:39;99584.03;;;20.07;74.79
19286;BME280;9776;50.798;6.430;2023-10-13T05:58:23;99584.03;;;20.07;74.99
19286;BME280;9776;50.798;6.430;2023-10-13T06:01:12;99587.09;;;20.11;74.78
19286;BME280;9776;50.798;6.430;2023-10-13T06:03:56;99583.34;;;20.12;74.92
19286;BME280;9776;50.798;6.430;2023-10-13T06:06:40;99579.63;;;20.13;74.77
19286;BME280;9776;50.798;6.430;2023-10-13T06:09:24;99575.91;;;20.14;74.76
19286;BME280;9776;50.798;6.430;2023-10-13T06:12:08;99576.72;;;20.14;74.40
19286;BME280;9776;50.798;6.430;2023-10-13T06:14:52;99576.25;;;20.17;74.39
19286;BME280;9776;50.798;6.430;2023-10-13T06:17:37;99570.69;;;20.19;74.43
19286;BME280;9776;50.798;6.430;2023-10-13T06:20:21;99570.69;;;20.19;74.36
19286;BME280;9776;50.798;6.430;2023-10-13T06:23:05;99568.22;;;20.17;74.15
19286;BME280;9776;50.798;6.430;2023-10-13T06:25:53;99558.69;;;20.21;74.22
19286;BME280;9776;50.798;6.430;2023-10-13T06:28:37;99558.91;;;20.20;74.12
19286;BME280;9776;50.798;6.430;2023-10-13T06:31:07;99549.34;;;20.24;73.80
19286;BME280;9776;50.798;6.430;2023-10-13T06:33:39;99548.94;;;20.27;73.67
19286;BME280;9776;50.798;6.430;2023-10-13T06:36:10;99553.25;;;20.28;73.74
19286;BME280;9776;50.798;6.430;2023-10-13T06:38:37;99542.06;;;20.31;73.23
19286;BME280;9776;50.798;6.430;2023-10-13T06:41:05;99538.94;;;20.34;72.82
19286;BME280;9776;50.798;6.430;2023-10-13T06:43:31;99540.09;;;20.38;72.67
19286;BME280;9776;50.798;6.430;2023-10-13T06:46:04;99544.97;;;20.41;72.37
19286;BME280;9776;50.798;6.430;2023-10-13T06:48:32;99541.00;;;20.44;72.06
19286;BME280;9776;50.798;6.430;2023-10-13T06:51:01;99534.38;;;20.46;71.57
19286;BME280;9776;50.798;6.430;2023-10-13T06:53:43;99520.75;;;20.48;71.36
19286;BME280;9776;50.798;6.430;2023-10-13T06:56:12;99528.91;;;20.53;71.16
19286;BME280;9776;50.798;6.430;2023-10-13T06:58:43;99529.50;;;20.55;70.98
19286;BME280;9776;50.798;6.430;2023-10-13T07:01:12;99532.75;;;20.57;70.71
19286;BME280;9776;50.798;6.430;2023-10-13T07:03:41;99528.78;;;20.59;70.46
19286;BME280;9776;50.798;6.430;2023-10-13T07:06:09;99529.16;;;20.63;70.38
19286;BME280;9776;50.798;6.430;2023-10-13T07:08:43;99528.06;;;20.64;69.87
19286;BME280;9776;50.798;6.430;2023-10-13T07:11:14;99522.25;;;20.67;69.66
19286;BME280;9776;50.798;6.430;2023-10-13T07:13:44;99514.00;;;20.68;69.41
19286;BME280;9776;50.798;6.430;2023-10-13T07:16:16;99507.91;;;20.73;68.98
19286;BME280;9776;50.798;6.430;2023-10-13T07:18:44;99505.00;;;20.74;68.66
19286;BME280;9776;50.798;6.430;2023-10-13T07:21:19;99498.34;;;20.77;68.22
19286;BME280;9776;50.798;6.430;2023-10-13T07:23:55;99501.97;;;20.82;67.84
19286;BME280;9776;50.798;6.430;2023-10-13T07:26:34;99506.50;;;20.82;67.45
19286;BME280;9776;50.798;6.430;2023-10-13T07:29:08;99503.81;;;20.82;67.55
19286;BME280;9776;50.798;6.430;2023-10-13T07:31:34;99504.63;;;20.82;67.20
19286;BME280;9776;50.798;6.430;2023-10-13T07:34:03;99513.03;;;20.86;67.01
19286;BME280;9776;50.798;6.430;2023-10-13T07:36:39;99487.34;;;20.90;66.46
19286;BME280;9776;50.798;6.430;2023-10-13T07:39:08;99496.00;;;20.92;66.14
19286;BME280;9776;50.798;6.430;2023-10-13T07:41:51;99494.47;;;20.96;65.58
19286;BME280;9776;50.798;6.430;2023-10-13T07:44:29;99491.66;;;21.03;64.84
19286;BME280;9776;50.798;6.430;2023-10-13T07:46:57;99500.66;;;21.08;64.11
19286;BME280;9776;50.798;6.430;2023-10-13T07:49:29;99505.63;;;21.16;63.65
19286;BME280;9776;50.798;6.430;2023-10-13T07:52:00;99498.84;;;21.25;63.18
19286;BME280;9776;50.798;6.430;2023-10-13T07:54:42;99501.41;;;21.32;62.62
19286;BME280;9776;50.798;6.430;2023-10-13T07:57:13;99485.63;;;21.35;62.34
19286;BME280;9776;50.798;6.430;2023-10-13T07:59:40;99489.47;;;21.39;61.52
19286;BME280;9776;50.798;6.430;2023-10-13T08:02:15;99489.06;;;21.47;60.97
19286;BME280;9776;50.798;6.430;2023-10-13T08:05:01;99482.50;;;21.55;60.40
19286;BME280;9776;50.798;6.430;2023-10-13T08:07:31;99475.91;;;21.63;59.65
19286;BME280;9776;50.798;6.430;2023-10-13T08:10:00;99478.38;;;21.64;59.12
19286;BME280;9776;50.798;6.430;2023-10-13T08:12:27;99481.97;;;21.70;58.84
19286;BME280;9776;50.798;6.430;2023-10-13T08:14:53;99480.66;;;21.72;58.71
19286;BME280;9776;50.798;6.430;2023-10-13T08:17:37;99478.53;;;21.74;58.41
19286;BME280;9776;50.798;6.430;2023-10-13T08:20:10;99475.16;;;21.79;58.19
19286;BME280;9776;50.798;6.430;2023-10-13T08:22:39;99488.19;;;21.87;57.80
19286;BME280;9776;50.798;6.430;2023-10-13T08:25:12;99474.75;;;21.87;57.53
19286;BME280;9776;50.798;6.430;2023-10-13T08:27:46;99468.91;;;21.90;57.10
19286;BME280;9776;50.798;6.430;2023-10-13T08:30:31;99480.22;;;21.92;56.58
19286;BME280;9776;50.798;6.430;2023-10-13T08:33:07;99469.81;;;21.95;56.20
19286;BME280;9776;50.798;6.430;2023-10-13T08:35:43;99476.16;;;22.06;55.54
19286;BME280;9776;50.798;6.430;2023-10-13T08:38:21;99472.44;;;22.07;55.58
19286;BME280;9776;50.798;6.430;2023-10-13T08:40:58;99480.31;;;22.14;55.34
19286;BME280;9776;50.798;6.430;2023-10-13T08:43:42;99482.19;;;22.13;55.33
19286;BME280;9776;50.798;6.430;2023-10-13T08:46:10;99491.88;;;22.14;55.25
19286;BME280;9776;50.798;6.430;2023-10-13T08:48:56;99475.84;;;22.19;55.04
19286;BME280;9776;50.798;6.430;2023-10-13T08:51:42;99490.34;;;22.18;55.07
19286;BME280;9776;50.798;6.430;2023-10-13T08:54:16;99490.75;;;22.27;54.79
19286;BME280;9776;50.798;6.430;2023-10-13T08:56:58;99490.09;;;22.36;54.64
19286;BME280;9776;50.798;6.430;2023-10-13T08:59:31;99477.75;;;22.40;54.34
19286;BME280;9776;50.798;6.430;2023-10-13T09:02:12;99481.09;;;22.47;54.07
19286;BME280;9776;50.798;6.430;2023-10-13T09:04:42;99485.50;;;22.53;54.15
19286;BME280;9776;50.798;6.430;2023-10-13T09:07:10;99482.13;;;22.80;53.53
19286;BME280;9776;50.798;6.430;2023-10-13T09:09:49;99484.38;;;23.31;52.48
19286;BME280;9776;50.798;6.430;2023-10-13T09:12:58;99470.84;;;23.75;51.62
19286;BME280;9776;50.798;6.430;2023-10-13T09:15:30;99472.78;;;23.84;51.47
19286;BME280;9776;50.798;6.430;2023-10-13T09:18:23;99464.78;;;23.89;51.15
19286;BME280;9776;50.798;6.430;2023-10-13T09:21:07;99465.16;;;24.03;50.92
19286;BME280;9776;50.798;6.430;2023-10-13T09:23:55;99468.84;;;24.23;50.62
19286;BME280;9776;50.798;6.430;2023-10-13T09:26:43;99462.69;;;24.33;50.37
19286;BME280;9776;50.798;6.430;2023-10-13T09:29:17;99452.81;;;24.49;50.14
19286;BME280;9776;50.798;6.430;2023-10-13T09:31:45;99454.47;;;24.55;49.88
19286;BME280;9776;50.798;6.430;2023-10-13T09:34:20;99448.22;;;24.49;50.07
19286;BME280;9776;50.798;6.430;2023-10-13T09:36:46;99448.94;;;24.35;50.43
19286;BME280;9776;50.798;6.430;2023-10-13T09:39:24;99432.56;;;24.46;50.19
19286;BME280;9776;50.798;6.430;2023-10-13T09:42:06;99431.59;;;24.67;49.95
19286;BME280;9776;50.798;6.430;2023-10-13T09:44:36;99437.25;;;24.61;50.02
19286;BME280;9776;50.798;6.430;2023-10-13T09:47:07;99429.88;;;24.51;50.28
19286;BME280;9776;50.798;6.430;2023-10-13T09:49:45;99437.66;;;24.43;50.32
19286;BME280;9776;50.798;6.430;2023-10-13T09:52:16;99423.34;;;24.37;50.79
19286;BME280;9776;50.798;6.430;2023-10-13T09:54:55;99419.06;;;24.41;50.72
19286;BME280;9776;50.798;6.430;2023-10-13T09:57:29;99423.19;;;24.59;50.44
19286;BME280;9776;50.798;6.430;2023-10-13T10:00:06;99419.28;;;24.81;49.75
19286;BME280;9776;50.798;6.430;2023-10-13T10:02:53;99429.09;;;25.08;49.28
19286;BME280;9776;50.798;6.430;2023-10-13T10:05:24;99410.78;;;25.35;48.82
19286;BME280;9776;50.798;6.430;2023-10-13T10:07:54;99411.91;;;25.49;48.37
19286;BME280;9776;50.798;6.430;2023-10-13T10:10:22;99418.16;;;25.80;47.92
19286;BME280;9776;50.798;6.430;2023-10-13T10:12:53;99413.53;;;26.01;47.29
19286;BME280;9776;50.798;6.430;2023-10-13T10:15:27;99425.69;;;26.33;46.83
19286;BME280;9776;50.798;6.430;2023-10-13T10:17:56;99416.72;;;26.48;46.21
19286;BME280;9776;50.798;6.430;2023-10-13T10:20:29;99412.63;;;26.56;45.93
19286;BME280;9776;50.798;6.430;2023-10-13T10:23:05;99415.03;;;26.72;45.12
19286;BME280;9776;50.798;6.430;2023-10-13T10:25:35;99410.97;;;26.65;45.25
19286;BME280;9776;50.798;6.430;2023-10-13T10:28:06;99400.69;;;26.72;45.19
19286;BME280;9776;50.798;6.430;2023-10-13T10:30:35;99399.84;;;26.76;45.13
19286;BME280;9776;50.798;6.430;2023-10-13T10:33:04;99369.97;;;26.96;44.37
19286;BME280;9776;50.798;6.430;2023-10-13T10:35:37;99372.09;;;27.04;44.16
19286;BME280;9776;50.798;6.430;2023-10-13T10:38:11;99364.94;;;27.24;43.83
19286;BME280;9776;50.798;6.430;2023-10-13T10:40:53;99371.50;;;27.56;43.41
19286;BME280;9776;50.798;6.430;2023-10-13T10:43:26;99354.16;;;27.86;42.12
19286;BME280;9776;50.798;6.430;2023-10-13T10:45:54;99366.81;;;28.25;41.85
19286;BME280;9776;50.798;6.430;2023-10-13T10:48:25;99360.00;;;27.98;41.73
19286;BME280;9776;50.798;6.430;2023-10-13T10:50:57;99349.09;;;27.46;42.69
19286;BME280;9776;50.798;6.430;2023-10-13T10:53:24;99354.47;;;27.07;43.31
19286;BME280;9776;50.798;6.430;2023-10-13T10:56:04;99352.72;;;26.82;43.76
19286;BME280;9776;50.798;6.430;2023-10-13T10:58:35;99355.47;;;26.67;43.79
19286;BME280;9776;50.798;6.430;2023-10-13T11:01:09;99352.09;;;26.36;43.78
19286;BME280;9776;50.798;6.430;2023-10-13T11:03:37;99347.28;;;26.23;43.85
19286;BME280;9776;50.798;6.430;2023-10-13T11:06:11;99354.84;;;26.21;44.14
19286;BME280;9776;50.798;6.430;2023-10-13T11:08:42;99357.81;;;26.20;43.93
19286;BME280;9776;50.798;6.430;2023-10-13T11:11:16;99355.66;;;26.22;44.10
19286;BME280;9776;50.798;6.430;2023-10-13T11:13:45;99341.31;;;26.21;43.73
19286;BME280;9776;50.798;6.430;2023-10-13T11:16:20;99339.16;;;26.08;44.04
19286;BME280;9776;50.798;6.430;2023-10-13T11:18:59;99349.44;;;26.06;43.87
19286;BME280;9776;50.798;6.430;2023-10-13T11:21:29;99338.63;;;26.01;44.41
19286;BME280;9776;50.798;6.430;2023-10-13T11:23:56;99336.50;;;25.93;44.46
19286;BME280;9776;50.798;6.430;2023-10-13T11:26:33;99336.25;;;25.79;44.68
19286;BME280;9776;50.798;6.430;2023-10-13T11:29:01;99340.84;;;25.79;44.39
19286;BME280;9776;50.798;6.430;2023-10-13T11:31:35;99331.34;;;25.86;44.35
19286;BME280;9776;50.798;6.430;2023-10-13T11:34:03;99341.59;;;26.05;43.82
19286;BME280;9776;50.798;6.430;2023-10-13T11:36:31;99344.28;;;26.10;44.40
19286;BME280;9776;50.798;6.430;2023-10-13T11:38:58;99332.97;;;26.03;44.50
19286;BME280;9776;50.798;6.430;2023-10-13T11:41:25;99330.56;;;25.91;45.00
19286;BME280;9776;50.798;6.430;2023-10-13T11:43:58;99332.47;;;25.70;44.76
19286;BME280;9776;50.798;6.430;2023-10-13T11:46:46;99312.75;;;25.50;44.75
19286;BME280;9776;50.798;6.430;2023-10-13T11:49:32;99326.50;;;25.38;45.11
19286;BME280;9776;50.798;6.430;2023-10-13T11:52:02;99318.41;;;25.33;45.07
19286;BME280;9776;50.798;6.430;2023-10-13T11:54:45;99311.09;;;25.38;44.60
19286;BME280;9776;50.798;6.430;2023-10-13T11:57:12;99309.47;;;25.42;44.63
19286;BME280;9776;50.798;6.430;2023-10-13T11:59:42;99306.53;;;25.59;44.39
19286;BME280;9776;50.798;6.430;2023-10-13T12:02:20;99300.28;;;25.69;43.89
19286;BME280;9776;50.798;6.430;2023-10-13T12:05:05;99301.66;;;25.71;43.71
19286;BME280;9776;50.798;6.430;2023-10-13T12:07:38;99308.41;;;25.69;43.59
19286;BME280;9776;50.798;6.430;2023-10-13T12:10:13;99294.63;;;25.60;43.55
19286;BME280;9776;50.798;6.430;2023-10-13T12:12:59;99293.00;;;25.54;43.32
19286;BME280;9776;50.798;6.430;2023-10-13T12:15:32;99297.06;;;25.62;43.44
19286;BME280;9776;50.798;6.430;2023-10-13T12:18:15;99288.69;;;25.73;43.32
19286;BME280;9776;50.798;6.430;2023-10-13T12:20:42;99287.03;;;25.87;43.15
19286;BME280;9776;50.798;6.430;2023-10-13T12:23:11;99286.28;;;26.51;41.87
19286;BME280;9776;50.798;6.430;2023-10-13T12:25:43;99283.53;;;26.56;41.63
19286;BME280;9776;50.798;6.430;2023-10-13T12:28:26;99279.84;;;26.37;42.04
19286;BME280;9776;50.798;6.430;2023-10-13T12:31:03;99287.75;;;26.18;42.27
19286;BME280;9776;50.798;6.430;2023-10-13T12:33:34;99284.81;;;26.05;42.50
19286;BME280;9776;50.798;6.430;2023-10-13T12:36:06;99276.22;;;25.87;42.67
19286;BME280;9776;50.798;6.430;2023-10-13T12:38:40;99281.06;;;25.80;42.75
19286;BME280;9776;50.798;6.430;2023-10-13T12:41:27;99273.28;;;25.64;42.81
19286;BME280;9776;50.798;6.430;2023-10-13T12:44:11;99269.22;;;25.46;43.33
19286;BME280;9776;50.798;6.430;2023-10-13T12:46:55;99277.34;;;25.41;43.36
19286;BME280;9776;50.798;6.430;2023-10-13T12:49:40;99276.78;;;25.44;43.31
19286;BME280;9776;50.798;6.430;2023-10-13T12:52:23;99263.81;;;25.41;43.21
19286;BME280;9776;50.798;6.430;2023-10-13T12:54:52;99256.81;;;25.30;43.52
19286;BME280;9776;50.798;6.430;2023-10-13T12:57:31;99241.16;;;25.17;43.60
19286;BME280;9776;50.798;6.430;2023-10-13T12:59:58;99254.66;;;25.02;44.03
19286;BME280;9776;50.798;6.430;2023-10-13T13:02:26;99254.63;;;24.92;44.04
19286;BME280;9776;50.798;6.430;2023-10-13T13:04:56;99252.69;;;24.77;44.43
19286;BME280;9776;50.798;6.430;2023-10-13T13:07:31;99261.03;;;24.70;44.29
19286;BME280;9776;50.798;6.430;2023-10-13T13:10:09;99262.97;;;24.70;44.40
19286;BME280;9776;50.798;6.430;2023-10-13T13:12:36;99276.44;;;24.75;44.11
19286;BME280;9776;50.798;6.430;2023-10-13T13:15:04;99294.25;;;24.71;44.03
19286;BME280;9776;50.798;6.430;2023-10-13T13:17:34;99281.56;;;24.71;44.00
19286;BME280;9776;50.798;6.430;2023-10-13T13:20:02;99257.56;;;24.70;44.15
19286;BME280;9776;50.798;6.430;2023-10-13T13:22:36;99260.50;;;24.73;43.73
19286;BME280;9776;50.798;6.430;2023-10-13T13:25:03;99244.59;;;24.77;43.44
19286;BME280;9776;50.798;6.430;2023-10-13T13:27:33;99242.19;;;24.75;43.28
19286;BME280;9776;50.798;6.430;2023-10-13T13:29:59;99244.66;;;24.87;42.64
19286;BME280;9776;50.798;6.430;2023-10-13T13:32:27;99231.72;;;24.99;42.37
19286;BME280;9776;50.798;6.430;2023-10-13T13:34:54;99233.31;;;25.00;42.63
19286;BME280;9776;50.798;6.430;2023-10-13T13:37:25;99245.47;;;24.98;42.86
19286;BME280;9776;50.798;6.430;2023-10-13T13:39:54;99243.84;;;24.97;42.89
19286;BME280;9776;50.798;6.430;2023-10-13T13:42:21;99247.34;;;25.02;42.96
19286;BME280;9776;50.798;6.430;2023-10-13T13:44:47;99247.09;;;24.99;43.07
19286;BME280;9776;50.798;6.430;2023-10-13T13:47:14;99241.16;;;25.07;43.26